Allisonia, Virginia
Current Conditions -  °F | °C
As of 7:55 PM on Sunday 21 Dec 2014 (Local Time) from KPSK Reporting Station
Overcast Overcast  
Wind Chill: 37°   Ceiling: 2600
Heat Index: 40°   Visibility: 10mi
Dew Point: 35°   Wind: 5mph
Humidity: 81%   Direction: 120°ESE
Pressure: 30.19"   Gusts: NA
Location:  36.9752°N, 80.6434°W
Report Text: KPSK 220055Z AUTO 12004KT 10SM OVC026 05/02 A3019 RMK AO2 T00460016
Loading
Personal Weather Stations






























Interactive Weather Map New forecast layout! Learn more

10-Day Weather Forecast

Advertisements
Track Severe Weather on mobile